Time;durP1;ratioP1;P1;durP2;ratioP2;P2;SDS_P1;SDS_P2;PMS_P1;PMS_P2;Temp;Humidity;BMP_temperature;BMP_pressure;BME280_temperature;BME280_humidity;BME280_pressure;Samples;Min_cycle;Max_cycle;Signal;HPM_P1;HPM_P2
2022/01/04 11:48:39;;;;;;;;;0.00;0.00;;;;;10.96;72.12;99846.38;6310999;22;45243;-80
2022/01/04 11:51:29;;;;;;;;;2.00;2.00;;;;;10.97;72.16;99838.44;6283204;22;45168;-81
2022/01/04 11:54:23;;;;;;;;;2.67;1.00;;;;;10.98;72.37;99855.97;6309397;22;45267;-80
2022/01/04 11:57:17;;;;;;;;;1.33;1.00;;;;;10.98;72.29;99863.00;6281899;22;45365;-81
2022/01/04 11:59:47;;;;;;;;;3.00;2.00;;;;;10.94;72.05;99851.69;6282913;22;48106;-81
2022/01/04 12:02:58;;;;;;;;;2.00;2.00;;;;;10.97;72.34;99837.59;6309704;22;45699;-81
2022/01/04 12:05:31;;;;;;;;;0.00;0.00;;;;;11.03;72.28;99845.34;6282257;22;45302;-81
2022/01/04 12:08:14;;;;;;;;;1.67;1.00;;;;;11.04;72.17;99837.44;6310461;22;45473;-81
2022/01/04 12:10:42;;;;;;;;;1.00;1.00;;;;;11.06;71.89;99841.78;6307636;22;47320;-81
2022/01/04 12:13:10;;;;;;;;;0.00;0.00;;;;;11.00;72.00;99830.47;6308593;22;45349;-81
2022/01/04 12:15:36;;;;;;;;;3.00;2.00;;;;;11.03;72.02;99840.09;6284901;22;45434;-81
2022/01/04 12:18:06;;;;;;;;;2.67;1.00;;;;;11.07;72.06;99851.44;6314016;22;45223;-81
2022/01/04 12:20:43;;;;;;;;;2.00;2.00;;;;;11.11;72.15;99855.75;6311471;22;46367;-82
2022/01/04 12:23:45;;;;;;;;;2.00;1.00;;;;;11.13;71.91;99853.94;6283562;22;45399;-82
2022/01/04 12:26:12;;;;;;;;;1.00;1.00;;;;;11.12;71.66;99858.38;6129837;23;45273;-81
2022/01/04 12:28:59;;;;;;;;;0.00;0.00;;;;;11.11;71.39;99848.69;6279232;22;45464;-79
2022/01/04 13:00:52;;;;;;;;;1.00;1.00;;;;;11.16;70.38;99783.63;6320484;22;46331;-79
2022/01/04 13:03:39;;;;;;;;;0.67;0.67;;;;;11.11;70.67;99769.69;6311246;22;45344;-83
2022/01/04 13:06:05;;;;;;;;;1.33;1.33;;;;;11.18;70.71;99763.38;6288984;22;45477;-80
2022/01/04 13:08:32;;;;;;;;;1.00;1.00;;;;;11.17;70.63;99753.75;6282618;22;45201;-79
2022/01/04 13:11:23;;;;;;;;;2.00;0.67;;;;;11.26;70.60;99745.63;6312573;22;45382;-80
2022/01/04 13:15:09;;;;;;;;;1.00;1.00;;;;;11.31;70.64;99748.19;6314935;22;45314;-81
2022/01/04 13:17:29;;;;;;;;;2.00;1.00;;;;;11.39;70.37;99746.22;6234668;22;46806;-78
2022/01/04 13:19:55;;;;;;;;;1.00;1.00;;;;;11.41;70.31;99736.53;6310471;22;45354;-78
2022/01/04 13:22:23;;;;;;;;;2.67;1.00;;;;;11.42;70.62;99740.88;6311046;22;45328;-77
2022/01/04 13:28:11;;;;;;;;;1.00;1.00;;;;;11.55;70.02;99754.66;6309923;22;45649;-79
2022/01/04 13:30:41;;;;;;;;;1.33;0.33;;;;;11.55;69.85;99744.09;6282026;22;45349;-79
2022/01/04 13:33:10;;;;;;;;;2.00;1.67;;;;;11.61;69.80;99748.38;6309623;22;45101;-80
2022/01/04 13:35:38;;;;;;;;;1.00;1.00;;;;;11.62;69.46;99740.41;6309500;22;45175;-79
2022/01/04 13:38:06;;;;;;;;;2.00;2.00;;;;;11.74;69.73;99757.72;6309451;22;46094;-79
2022/01/04 13:40:33;;;;;;;;;1.00;1.00;;;;;11.74;69.22;99746.31;6281653;22;45220;-79
2022/01/04 13:43:03;;;;;;;;;2.00;1.00;;;;;11.80;69.15;99756.69;6310001;22;45216;-79
2022/01/04 13:45:43;;;;;;;;;1.00;1.00;;;;;11.79;69.39;99765.50;6297011;22;45369;-79
2022/01/04 13:48:10;;;;;;;;;1.00;1.00;;;;;11.80;69.13;99760.19;6314221;22;48413;-79
2022/01/04 13:50:41;;;;;;;;;4.00;1.33;;;;;11.81;68.72;99761.91;6316361;22;45294;-78
2022/01/04 13:53:14;;;;;;;;;1.00;1.00;;;;;11.78;68.82;99753.22;6314869;22;45128;-79
2022/01/04 13:55:57;;;;;;;;;1.00;1.00;;;;;11.81;68.81;99761.03;6312889;22;45172;-78
2022/01/04 13:58:37;;;;;;;;;2.67;0.00;;;;;11.79;68.81;99757.59;6341823;22;45449;-78
2022/01/04 14:01:31;;;;;;;;;3.00;2.00;;;;;11.75;68.84;99756.78;6312864;22;45722;-78
2022/01/04 14:04:19;;;;;;;;;1.33;1.00;;;;;11.66;68.79;99757.03;6341267;22;45170;-78
2022/01/04 14:06:56;;;;;;;;;1.67;1.00;;;;;11.66;69.20;99772.84;6313224;22;45299;-79
2022/01/04 14:09:33;;;;;;;;;1.00;1.00;;;;;11.64;69.07;99764.09;6313370;22;48317;-79
2022/01/04 14:12:12;;;;;;;;;3.00;1.67;;;;;11.65;69.18;99772.00;6342526;22;45313;-79
2022/01/04 14:14:48;;;;;;;;;0.67;0.67;;;;;11.65;68.87;99772.00;6314487;22;45225;-79
2022/01/04 14:17:17;;;;;;;;;2.00;1.00;;;;;11.62;68.81;99760.63;6341788;22;45179;-79
2022/01/04 14:19:54;;;;;;;;;1.00;1.00;;;;;11.57;68.48;99752.81;6341124;22;47319;-79
2022/01/04 14:22:25;;;;;;;;;1.00;1.00;;;;;11.53;68.47;99755.59;6341360;22;45269;-79
2022/01/04 14:25:00;;;;;;;;;1.00;1.00;;;;;11.45;68.58;99743.44;6314900;22;45404;-79
2022/01/04 14:27:43;;;;;;;;;2.33;2.00;;;;;11.51;68.64;99762.66;6313888;22;45373;-78
2022/01/04 14:30:16;;;;;;;;;3.00;1.00;;;;;11.42;68.79;99761.97;6341930;22;45384;-79
2022/01/04 14:32:52;;;;;;;;;1.00;1.00;;;;;11.41;68.68;99754.97;6342202;22;45179;-80
2022/01/04 14:35:26;;;;;;;;;1.33;0.00;;;;;11.39;68.63;99759.41;6341567;22;45234;-78
2022/01/04 14:37:54;;;;;;;;;0.33;0.33;;;;;11.39;68.51;99764.69;6313613;22;45511;-81
2022/01/04 14:40:22;;;;;;;;;1.33;1.33;;;;;11.42;68.54;99763.75;6341220;22;45428;-81
2022/01/04 14:42:50;;;;;;;;;3.00;2.00;;;;;11.41;68.36;99760.25;6312733;22;45910;-80
2022/01/04 14:45:29;;;;;;;;;1.00;1.00;;;;;11.42;68.20;99771.66;6313859;22;45221;-80
2022/01/04 14:47:59;;;;;;;;;1.33;1.00;;;;;11.37;68.28;99761.19;6342755;22;45364;-80
2022/01/04 14:50:25;;;;;;;;;1.00;1.00;;;;;11.35;68.12;99765.63;6343108;22;45639;-81
2022/01/04 14:52:59;;;;;;;;;2.00;0.00;;;;;11.37;68.38;99768.25;6343180;22;45112;-81
2022/01/04 14:55:24;;;;;;;;;0.67;0.67;;;;;11.33;67.97;99756.03;6314570;22;45208;-78
2022/01/04 15:05:22;;;;;;;;;1.33;1.33;;;;;11.36;68.12;99764.75;6039949;23;45329;-87
2022/01/04 15:07:53;;;;;;;;;2.67;1.00;;;;;11.33;68.11;99761.31;6042649;23;45278;-80
2022/01/04 15:10:39;;;;;;;;;2.00;2.00;;;;;11.37;68.19;99774.38;6096151;23;44915;-82
2022/01/04 15:13:26;;;;;;;;;;;;;;;;;;;;;
2022/01/04 15:15:54;;;;;;;;;1.33;1.33;;;;;11.37;68.42;99765.63;6342150;22;71425;-81
2022/01/04 15:18:23;;;;;;;;;1.00;1.00;;;;;11.37;68.08;99771.75;6308728;22;45846;-86
2022/01/04 15:20:51;;;;;;;;;2.00;1.00;;;;;11.37;68.01;99770.88;6341173;22;45518;-79
2022/01/04 15:23:19;;;;;;;;;4.00;1.00;;;;;11.32;68.01;99764.84;6339668;22;45538;-80
2022/01/04 15:26:21;;;;;;;;;1.33;0.00;;;;;11.33;68.15;99763.94;6312530;22;45341;-81
2022/01/04 15:28:49;;;;;;;;;2.00;0.67;;;;;11.33;67.95;99770.06;6333645;22;45401;-80
2022/01/04 15:31:17;;;;;;;;;0.00;0.00;;;;;11.31;67.74;99763.13;6311593;22;45408;-79
2022/01/04 15:33:42;;;;;;;;;2.00;2.00;;;;;11.33;67.79;99756.88;6339022;22;45464;-79
2022/01/04 15:36:10;;;;;;;;;1.00;0.00;;;;;11.33;68.04;99767.44;6341198;22;45573;-80
2022/01/04 15:38:39;;;;;;;;;1.00;1.00;;;;;11.31;68.04;99764.00;6315810;22;45321;-79
2022/01/04 15:41:08;;;;;;;;;1.00;1.00;;;;;11.29;67.73;99751.75;6314217;22;45957;-78
2022/01/04 15:43:40;;;;;;;;;1.00;1.00;;;;;11.33;67.85;99764.78;6339602;22;45422;-83
2022/01/04 15:46:06;;;;;;;;;1.00;1.00;;;;;11.34;67.88;99763.06;6340213;22;45486;-80
2022/01/04 15:48:31;;;;;;;;;1.00;1.00;;;;;11.30;67.74;99761.38;6312973;22;45318;-80
2022/01/04 15:51:48;;;;;;;;;;;;;;;;;;;;;
2022/01/04 15:54:20;;;;;;;;;3.33;2.33;;;;;11.23;67.49;99760.66;6340271;22;76643;-82
2022/01/04 15:57:09;;;;;;;;;3.67;2.00;;;;;11.28;67.68;99782.50;6339480;22;45421;-82
2022/01/04 15:59:40;;;;;;;;;1.67;1.67;;;;;11.21;67.80;99776.50;6337550;22;45255;-81
2022/01/04 16:02:06;;;;;;;;;1.67;1.00;;;;;11.23;67.59;99772.06;6335706;22;45504;-80
2022/01/04 16:04:35;;;;;;;;;2.00;1.00;;;;;11.22;67.50;99780.84;6343362;22;45387;-81
2022/01/04 16:07:02;;;;;;;;;0.00;0.00;;;;;11.20;67.53;99789.69;6314039;22;45228;-79
2022/01/04 16:09:57;;;;;;;;;2.00;1.67;;;;;11.17;67.63;99793.28;6312411;22;45263;-80
2022/01/04 16:12:25;;;;;;;;;1.00;1.00;;;;;11.20;67.55;99806.38;6343986;22;45231;-80
2022/01/04 16:14:55;;;;;;;;;1.00;1.00;;;;;11.20;66.31;99822.19;6315939;22;46983;-80
2022/01/04 16:24:57;;;;;;;;;1.00;1.00;;;;;10.99;63.41;99825.28;6158138;23;45538;-82
2022/01/04 16:31:45;;;;;;;;;;;;;;;;;;;;;
2022/01/04 16:35:13;;;;;;;;;1.00;1.00;;;;;10.72;62.35;99821.38;6183149;23;67334;-82
2022/01/04 16:37:44;;;;;;;;;1.00;1.00;;;;;10.73;62.55;99825.78;6316745;22;45420;-81
2022/01/04 16:40:12;;;;;;;;;1.00;1.00;;;;;10.68;62.74;99828.47;6341415;22;46200;-81
2022/01/04 16:42:42;;;;;;;;;2.00;1.00;;;;;10.58;62.55;99817.28;6341047;22;45335;-80
2022/01/04 16:45:34;;;;;;;;;;;;;;;;;;;;;
2022/01/04 16:48:07;;;;;;;;;1.33;1.00;;;;;10.60;63.08;99828.63;6342123;22;72806;-79
2022/01/04 16:50:35;;;;;;;;;3.00;2.50;;;;;10.60;63.17;99823.34;6342584;22;45449;-78
2022/01/04 16:53:01;;;;;;;;;0.33;0.33;;;;;10.55;63.27;99821.72;6342558;22;45274;-79
2022/01/04 16:55:36;;;;;;;;;0.33;0.33;;;;;10.53;63.03;99826.13;6311192;22;45310;-77
2022/01/04 16:58:03;;;;;;;;;2.67;1.00;;;;;10.60;63.02;99825.13;6340503;22;45301;-76
2022/01/04 17:00:31;;;;;;;;;1.00;1.00;;;;;10.59;62.80;99828.66;6341075;22;46245;-78
2022/01/04 17:02:56;;;;;;;;;0.33;0.33;;;;;10.57;62.59;99819.94;6340061;22;45632;-78
2022/01/04 17:05:29;;;;;;;;;1.00;1.00;;;;;10.52;62.25;99803.34;6312574;22;45393;-78
2022/01/04 17:07:54;;;;;;;;;0.33;0.00;;;;;10.50;61.77;99819.16;6339793;22;45298;-78
2022/01/04 17:10:22;;;;;;;;;0.00;0.00;;;;;10.46;61.82;99816.63;6341605;22;46320;-79
2022/01/04 17:15:32;;;;;;;;;0.00;0.00;;;;;10.53;61.54;99840.19;6312739;22;45828;-80
2022/01/04 17:15:33;;;;;;;;;0.67;0.00;;;;;10.48;61.00;99834.13;6338341;22;45495;-80
2022/01/04 17:17:59;;;;;;;;;1.00;1.00;;;;;10.45;61.29;99823.66;6312424;22;45406;-81
2022/01/04 17:20:25;;;;;;;;;1.00;1.00;;;;;10.49;61.33;99829.72;6311282;22;47322;-80
2022/01/04 17:22:58;;;;;;;;;1.33;1.00;;;;;10.41;61.22;99819.34;6340701;22;45261;-79
2022/01/04 17:25:24;;;;;;;;;2.33;1.00;;;;;10.35;61.31;99836.09;6315599;22;45392;-79
2022/01/04 17:27:52;;;;;;;;;3.00;1.00;;;;;10.40;60.93;99833.41;6343165;22;45298;-80
2022/01/04 17:30:21;;;;;;;;;0.00;0.00;;;;;10.36;61.41;99819.41;6308530;22;47072;-80
2022/01/04 17:32:50;;;;;;;;;1.00;0.00;;;;;10.32;61.36;99823.00;6336317;22;45436;-79
2022/01/04 17:35:26;;;;;;;;;0.33;0.33;;;;;10.38;61.37;99829.94;6312443;22;45694;-79
2022/01/04 17:37:54;;;;;;;;;0.00;0.00;;;;;10.29;61.53;99814.28;6340225;22;45284;-80
2022/01/04 17:40:22;;;;;;;;;0.00;0.00;;;;;10.27;61.48;99810.81;6337443;22;45431;-79
2022/01/04 17:42:48;;;;;;;;;0.33;0.33;;;;;10.26;61.89;99819.56;6339464;22;45313;-79
2022/01/04 17:45:14;;;;;;;;;2.00;2.00;;;;;10.26;61.30;99820.44;6311826;22;45458;-80
2022/01/04 17:47:39;;;;;;;;;1.00;1.00;;;;;10.33;61.56;99834.41;6341793;22;45236;-80
2022/01/04 17:50:19;;;;;;;;;1.00;0.33;;;;;10.31;61.82;99836.19;6314318;22;45771;-81
2022/01/04 17:52:50;;;;;;;;;0.67;0.67;;;;;10.30;61.94;99842.34;6312955;22;45343;-80
2022/01/04 17:55:15;;;;;;;;;1.00;1.00;;;;;10.23;61.67;99832.78;6313850;22;45360;-79
2022/01/04 17:57:50;;;;;;;;;0.00;0.00;;;;;10.24;61.75;99850.31;6342387;22;45243;-80
2022/01/04 18:00:18;;;;;;;;;2.33;1.00;;;;;10.18;61.99;99824.09;6313448;22;47066;-80
2022/01/04 18:02:44;;;;;;;;;0.00;0.00;;;;;10.15;61.92;99843.41;6342634;22;44705;-80
2022/01/04 18:05:13;;;;;;;;;1.00;1.00;;;;;10.09;61.97;99838.28;6313817;22;45322;-78
2022/01/04 18:07:38;;;;;;;;;0.00;0.00;;;;;10.18;62.13;99860.91;6341224;22;45252;-79
2022/01/04 18:10:08;;;;;;;;;2.00;0.33;;;;;10.09;62.38;99854.91;6311010;22;47901;-79
2022/01/04 18:12:36;;;;;;;;;1.00;1.00;;;;;10.14;62.40;99870.63;6338920;22;45309;-80
2022/01/04 18:15:04;;;;;;;;;1.00;1.00;;;;;10.10;62.27;99874.19;6311374;22;45303;-80
2022/01/04 18:17:33;;;;;;;;;1.00;1.00;;;;;10.14;62.24;99873.25;6312057;22;45362;-81
2022/01/04 18:20:01;;;;;;;;;2.00;2.00;;;;;10.14;62.65;99870.63;6309020;22;47621;-80
2022/01/04 18:22:29;;;;;;;;;1.33;1.00;;;;;10.08;62.59;99866.34;6338829;22;45374;-80
2022/01/04 18:24:57;;;;;;;;;2.00;0.00;;;;;10.13;62.45;99868.88;6340010;22;45253;-79
2022/01/04 18:28:18;;;;;;;;;0.00;0.00;;;;;10.02;62.52;99852.41;6339795;22;45302;-79
2022/01/04 18:30:56;;;;;;;;;1.00;1.00;;;;;10.02;62.81;99860.28;6303501;22;45292;-80
2022/01/04 18:33:45;;;;;;;;;1.00;1.00;;;;;10.06;62.89;99881.25;6341313;22;45219;-80
2022/01/04 18:36:30;;;;;;;;;1.00;1.00;;;;;9.99;63.10;99868.22;6340083;22;45257;-79
2022/01/04 18:38:55;;;;;;;;;0.00;0.00;;;;;10.05;63.21;99899.69;6315057;22;45397;-79
2022/01/04 18:41:23;;;;;;;;;1.00;1.00;;;;;9.96;63.84;99884.06;6315228;22;47702;-80
2022/01/04 18:43:58;;;;;;;;;;;;;;;;;;;;;
2022/01/04 18:47:19;;;;;;;;;0.25;0.25;;;;;9.88;65.47;99910.47;6339952;22;67553;-80
2022/01/04 18:53:11;;;;;;;;;2.25;1.00;;;;;9.60;66.53;99888.97;6311387;22;46775;-79
2022/01/04 18:55:38;;;;;;;;;1.50;1.00;;;;;9.55;66.83;99893.41;6342488;22;45351;-79
2022/01/04 18:58:04;;;;;;;;;1.00;1.00;;;;;9.45;66.86;99879.50;6341443;22;45476;-79
2022/01/04 19:00:37;;;;;;;;;0.67;0.67;;;;;9.49;66.98;99902.25;6341546;22;45353;-79
2022/01/04 19:03:03;;;;;;;;;1.00;0.00;;;;;9.32;66.76;99894.56;6338376;22;47614;-79
2022/01/04 19:05:39;;;;;;;;;1.00;1.00;;;;;9.35;67.06;99906.78;6312579;22;45303;-79
2022/01/04 19:08:05;;;;;;;;;1.00;1.00;;;;;9.28;66.94;99908.63;6341044;22;45227;-79
2022/01/04 19:10:30;;;;;;;;;1.00;1.00;;;;;9.22;66.95;99909.56;6312783;22;45409;-79
2022/01/04 19:12:56;;;;;;;;;1.00;1.00;;;;;9.19;66.74;99901.72;6341081;22;46126;-79
2022/01/04 19:15:24;;;;;;;;;2.25;0.75;;;;;9.32;66.81;99927.84;6314879;22;45576;-78
2022/01/04 19:17:50;;;;;;;;;1.25;1.00;;;;;9.33;67.00;99937.44;6344952;22;45320;-80
2022/01/04 19:20:18;;;;;;;;;1.50;1.50;;;;;9.14;66.83;99903.53;6313690;22;45514;-79
2022/01/04 19:22:45;;;;;;;;;1.00;1.00;;;;;9.30;66.68;99932.22;6312182;22;47162;-79
2022/01/04 19:25:14;;;;;;;;;0.75;0.75;;;;;9.23;66.95;99945.44;6340806;22;45238;-80
2022/01/04 19:27:40;;;;;;;;;1.00;1.00;;;;;9.28;66.88;99950.66;6340254;22;45315;-79
2022/01/04 19:30:10;;;;;;;;;0.00;0.00;;;;;9.10;67.01;99921.97;6312599;22;45363;-78
2022/01/04 19:37:59;;;;;;;;;2.00;2.00;;;;;9.15;66.83;99943.78;6342056;22;45344;-79
2022/01/04 19:40:30;;;;;;;;;1.00;1.00;;;;;9.07;66.59;99940.38;6341656;22;45439;-78
2022/01/04 19:42:58;;;;;;;;;1.00;1.00;;;;;9.14;66.84;99950.81;6313713;22;45936;-79
2022/01/04 19:45:26;;;;;;;;;1.25;0.50;;;;;9.16;66.96;99971.78;6341879;22;45187;-79
2022/01/04 19:47:52;;;;;;;;;1.00;1.00;;;;;9.10;66.72;99972.72;6315243;22;45402;-78
2022/01/04 19:50:22;;;;;;;;;1.75;1.75;;;;;9.04;66.96;99964.91;6344654;22;45286;-79
2022/01/04 19:52:50;;;;;;;;;1.75;1.75;;;;;9.09;66.76;99986.75;6345394;22;45870;-79
2022/01/04 19:55:16;;;;;;;;;1.00;1.00;;;;;8.98;66.97;99978.97;6343280;22;45223;-78
2022/01/04 19:57:44;;;;;;;;;1.50;1.50;;;;;8.94;67.03;99995.63;6314396;22;45330;-78
2022/01/04 20:00:16;;;;;;;;;3.25;2.00;;;;;9.10;67.07;100032.25;6314094;22;45545;-78
2022/01/04 20:02:56;;;;;;;;;1.00;1.00;;;;;8.91;67.14;100021.91;6341405;22;45478;-79
2022/01/04 20:05:24;;;;;;;;;0.75;0.75;;;;;8.67;66.97;100025.59;6313164;22;45191;-78
2022/01/04 20:07:52;;;;;;;;;1.00;1.00;;;;;8.69;67.35;100044.84;6314095;22;45338;-78
2022/01/04 20:10:18;;;;;;;;;2.00;1.00;;;;;8.52;67.01;100034.44;6341543;22;45195;-78
2022/01/04 20:12:43;;;;;;;;;0.00;0.00;;;;;8.56;66.08;100061.53;6313300;22;47295;-79
2022/01/04 20:15:14;;;;;;;;;0.00;0.00;;;;;8.46;65.74;100071.22;6314419;22;45477;-77
2022/01/04 20:17:42;;;;;;;;;1.00;1.00;;;;;8.26;65.46;100078.28;6313819;22;45369;-78
2022/01/04 20:20:13;;;;;;;;;0.75;0.75;;;;;8.18;65.57;100075.72;6313705;22;45386;-78
2022/01/04 20:22:42;;;;;;;;;0.75;0.75;;;;;8.23;65.47;100102.75;6313658;22;47952;-78
2022/01/04 20:25:08;;;;;;;;;0.25;0.25;;;;;8.05;65.62;100074.91;6313412;22;45290;-78
2022/01/04 20:27:39;;;;;;;;;1.50;1.00;;;;;8.09;66.08;100088.84;6318428;22;45283;-78
2022/01/04 20:30:10;;;;;;;;;1.75;1.75;;;;;8.23;66.14;100131.59;6346144;22;45357;-78
2022/01/04 20:32:43;;;;;;;;;1.00;1.00;;;;;8.09;66.07;100120.31;6342178;22;45400;-78
2022/01/04 20:35:10;;;;;;;;;0.00;0.00;;;;;8.04;65.83;100122.06;6341672;22;45361;-78
2022/01/04 20:37:37;;;;;;;;;0.25;0.25;;;;;7.99;66.11;100143.03;6341963;22;45088;-78
2022/01/04 20:40:13;;;;;;;;;0.00;0.00;;;;;7.78;66.41;100111.66;6313308;22;45545;-78
2022/01/04 20:42:42;;;;;;;;;0.00;0.00;;;;;7.79;65.96;100137.88;6313293;22;47011;-78
2022/01/04 20:45:08;;;;;;;;;0.00;0.00;;;;;7.77;66.04;100150.09;6313645;22;45386;-78
2022/01/04 20:47:40;;;;;;;;;0.00;0.00;;;;;7.68;66.38;100164.09;6342312;22;45178;-78
2022/01/04 20:50:13;;;;;;;;;0.00;0.00;;;;;7.39;66.79;100127.44;6342011;22;45321;-77
2022/01/04 20:52:41;;;;;;;;;0.00;0.00;;;;;7.51;66.67;100171.06;6341721;22;46007;-78
2022/01/04 20:55:13;;;;;;;;;0.25;0.25;;;;;7.26;66.54;100146.66;6341930;22;45393;-77
2022/01/04 20:57:39;;;;;;;;;0.50;0.50;;;;;7.39;66.55;100185.06;6342427;22;45180;-78
2022/01/04 21:00:10;;;;;;;;;1.00;1.00;;;;;7.07;66.61;100146.66;6314578;22;45441;-78
2022/01/04 21:02:38;;;;;;;;;0.00;0.00;;;;;7.37;66.67;100215.59;6341120;22;45480;-77
2022/01/04 21:05:05;;;;;;;;;0.25;0.25;;;;;7.09;66.46;100179.81;6343875;22;45167;-77
2022/01/04 21:07:35;;;;;;;;;0.00;0.00;;;;;7.14;66.27;100206.88;6345217;22;44746;-77
2022/01/04 21:10:00;;;;;;;;;0.50;0.50;;;;;7.15;65.71;100222.56;6311709;22;45176;-78
2022/01/04 21:12:28;;;;;;;;;0.00;0.00;;;;;7.16;65.88;100232.16;6341842;22;45441;-77
2022/01/04 21:14:58;;;;;;;;;0.75;0.75;;;;;6.90;65.45;100216.41;6312031;22;45530;-79
2022/01/04 21:17:24;;;;;;;;;0.50;0.00;;;;;6.87;64.36;100239.97;6308472;22;45698;-79
2022/01/04 21:19:49;;;;;;;;;1.00;1.00;;;;;6.75;64.60;100213.75;6309639;22;45371;-78
2022/01/04 21:22:17;;;;;;;;;0.00;0.00;;;;;6.81;64.63;100235.56;6338667;22;45529;-79
2022/01/04 21:24:45;;;;;;;;;0.00;0.00;;;;;6.89;63.90;100246.03;6338614;22;45362;-78
2022/01/04 21:27:11;;;;;;;;;0.00;0.00;;;;;6.72;63.70;100253.84;6338689;22;45393;-79
2022/01/04 21:29:36;;;;;;;;;1.00;0.00;;;;;6.86;63.54;100298.38;6310935;22;45335;-78
2022/01/04 21:32:07;;;;;;;;;0.75;0.75;;;;;6.72;63.74;100286.97;6338876;22;45464;-79
2022/01/04 21:34:38;;;;;;;;;0.00;0.00;;;;;6.63;62.70;100279.97;6339008;22;45687;-78
2022/01/04 21:37:05;;;;;;;;;0.00;0.00;;;;;6.50;63.00;100280.78;6339941;22;45398;-79
2022/01/04 21:39:33;;;;;;;;;0.00;0.00;;;;;6.49;62.65;100294.69;6311592;22;45277;-78
2022/01/04 21:42:01;;;;;;;;;2.00;2.00;;;;;6.66;63.11;100326.19;6339498;22;45405;-79
2022/01/04 21:44:28;;;;;;;;;1.00;1.00;;;;;6.53;63.13;100310.41;6310352;22;45651;-78
2022/01/04 21:46:57;;;;;;;;;0.00;0.00;;;;;6.44;63.00;100297.28;6310666;22;45390;-78
2022/01/04 21:49:28;;;;;;;;;0.00;0.00;;;;;6.57;62.96;100330.47;6338571;22;45506;-77
2022/01/04 21:51:54;;;;;;;;;1.00;0.00;;;;;6.50;62.91;100322.63;6310847;22;46866;-77
2022/01/04 21:54:27;;;;;;;;;0.50;0.50;;;;;6.26;62.63;100291.97;6338271;22;45350;-77
2022/01/04 21:57:03;;;;;;;;;;;;;;;;;;;;;
2022/01/04 21:59:33;;;;;;;;;1.00;0.00;;;;;6.34;62.80;100332.09;6338368;22;71800;-80
2022/01/04 22:01:58;;;;;;;;;2.00;0.00;;;;;6.37;63.05;100332.97;6312391;22;47763;-80
2022/01/04 22:04:26;;;;;;;;;1.50;1.00;;;;;6.47;63.12;100344.38;6339950;22;45321;-80
2022/01/04 22:07:02;;;;;;;;;1.00;1.00;;;;;6.53;63.16;100367.09;6311510;22;45362;-78
2022/01/04 22:09:28;;;;;;;;;1.00;0.75;;;;;6.46;62.91;100349.59;6311374;22;45464;-79
2022/01/04 22:11:53;;;;;;;;;2.00;1.00;;;;;6.34;62.46;100359.09;6310624;22;47203;-79
2022/01/04 22:14:28;;;;;;;;;2.75;1.00;;;;;6.28;62.47;100332.03;6310846;22;45399;-80
2022/01/04 22:16:53;;;;;;;;;1.25;1.25;;;;;6.42;62.35;100372.25;6339684;22;45509;-79
2022/01/04 22:19:19;;;;;;;;;0.00;0.00;;;;;6.40;62.15;100387.91;6313033;22;45389;-79
2022/01/04 22:21:44;;;;;;;;;0.00;0.00;;;;;6.27;62.37;100377.34;6311989;22;45591;-80
2022/01/04 22:24:10;;;;;;;;;0.00;0.00;;;;;6.34;62.28;100390.47;6310187;22;45342;-79
2022/01/04 22:26:43;;;;;;;;;2.50;1.50;;;;;6.23;62.42;100368.63;6338032;22;45787;-79
2022/01/04 22:29:12;;;;;;;;;2.00;1.00;;;;;6.15;62.27;100355.47;6310023;22;45627;-79
2022/01/04 22:31:42;;;;;;;;;0.25;0.25;;;;;6.12;62.57;100349.34;6309584;22;46931;-80
2022/01/04 22:34:08;;;;;;;;;2.50;1.00;;;;;6.24;62.51;100378.19;6310153;22;45385;-79
2022/01/04 22:36:33;;;;;;;;;0.75;0.75;;;;;6.50;62.42;100433.31;6338188;22;45510;-80
2022/01/04 22:39:01;;;;;;;;;0.50;0.50;;;;;6.28;62.29;100381.69;6338242;22;45525;-80
2022/01/04 22:41:30;;;;;;;;;1.00;1.00;;;;;6.59;62.42;100432.50;6311175;22;46719;-78
2022/01/04 22:43:55;;;;;;;;;1.00;1.00;;;;;6.51;62.30;100416.75;6338344;22;45708;-79
2022/01/04 22:46:30;;;;;;;;;3.00;0.50;;;;;6.47;62.26;100409.75;6335638;22;45498;-78
2022/01/04 22:48:55;;;;;;;;;1.25;1.00;;;;;6.21;62.15;100361.63;6337868;22;45389;-79
2022/01/04 22:51:24;;;;;;;;;3.00;1.00;;;;;6.23;62.37;100363.38;6310076;22;48489;-79
2022/01/04 22:53:52;;;;;;;;;1.00;1.00;;;;;6.34;62.53;100389.63;6311298;22;45381;-79
2022/01/04 22:56:17;;;;;;;;;0.00;0.00;;;;;6.55;62.09;100415.91;6312907;22;45349;-78
2022/01/04 22:58:42;;;;;;;;;0.50;0.00;;;;;6.70;61.94;100445.66;6337406;22;45575;-78
2022/01/04 23:01:08;;;;;;;;;0.25;0.25;;;;;6.61;61.68;100431.66;6338123;22;46685;-81
2022/01/04 23:03:37;;;;;;;;;0.00;0.00;;;;;6.56;61.92;100420.28;6338473;22;45294;-80
2022/01/04 23:06:05;;;;;;;;;4.50;1.00;;;;;6.58;61.82;100423.78;6338499;22;45441;-79
2022/01/04 23:08:31;;;;;;;;;0.25;0.25;;;;;6.56;62.11;100427.25;6311005;22;45551;-79
2022/01/04 23:10:59;;;;;;;;;2.00;1.00;;;;;6.43;61.82;100391.41;6338698;22;45726;-79
2022/01/04 23:13:24;;;;;;;;;1.00;1.00;;;;;6.44;61.85;100406.22;6313646;22;45337;-79
2022/01/04 23:15:49;;;;;;;;;0.00;0.00;;;;;6.49;62.08;100428.91;6312252;22;45628;-79
2022/01/04 23:18:30;;;;;;;;;1.00;1.00;;;;;6.49;61.89;100433.28;6310948;22;45674;-78
2022/01/04 23:20:57;;;;;;;;;0.00;0.00;;;;;6.45;61.56;100436.75;6310748;22;47017;-78
2022/01/04 23:23:28;;;;;;;;;0.00;0.00;;;;;6.39;61.87;100420.16;6310768;22;45520;-79
2022/01/04 23:25:57;;;;;;;;;2.25;1.00;;;;;6.26;62.06;100405.22;6310303;22;45479;-79
2022/01/04 23:28:22;;;;;;;;;1.50;1.50;;;;;6.45;61.99;100434.13;6310700;22;45476;-79
2022/01/04 23:30:48;;;;;;;;;2.50;0.00;;;;;6.35;62.32;100415.75;6310509;22;46986;-80
2022/01/04 23:33:16;;;;;;;;;4.00;1.75;;;;;6.59;61.99;100463.88;6313914;22;45351;-80
2022/01/04 23:35:41;;;;;;;;;4.25;2.25;;;;;6.50;62.35;100449.00;6339020;22;45434;-80
2022/01/04 23:38:09;;;;;;;;;0.75;0.75;;;;;6.24;62.18;100416.53;6338682;22;45428;-79
2022/01/04 23:40:39;;;;;;;;;2.00;2.00;;;;;6.26;62.51;100426.13;6338261;22;45373;-79
2022/01/04 23:43:13;;;;;;;;;4.00;1.00;;;;;6.42;62.38;100457.66;6311094;22;45338;-79
2022/01/04 23:45:39;;;;;;;;;0.00;0.00;;;;;6.47;62.49;100477.75;6335907;22;45627;-78
2022/01/04 23:54:58;;;;;;;;;;;;;;;;;;;;;
